DTTZ/TOE METAR and TAF weather

Enter ICAO airport designator
Station Type Date Time Source
DTTZ METAR 2021/03/05 13:00 UTC NOAA

DTTZ 051300Z 05012KT 6000 FEW033 22/07 Q1013


Station Type Date Time Source
DTTZ Decoded METAR 2021/03/05 13:00 UTC NOAA

Tozeur, Tunisia (DTTZ) 33-55N 008-06E 93M
Mar 05, 2021 - 08:00 AM EST / 2021.03.05 1300 UTC
Wind: from the NE (050 degrees) at 14 MPH (12 KT):0
Visibility: 3 mile(s):0
Sky conditions: mostly clear
Temperature: 71 F (22 C)
Dew Point: 44 F (7 C)
Relative Humidity: 37%
Pressure (altimeter): 29.91 in. Hg (1013 hPa)
ob: DTTZ 051300Z 05012KT 6000 FEW033 22/07 Q1013
cycle: 13

Station Type Date Time Source
DTTZ TAF 2021/03/05 12:48 UTC NOAA

TAF DTTZ 051100Z 0512/0612 06017KT 6000 NSC
BECMG 0519/0521 09008KT

Example: see airport list